Airfield :
LOGIN :

Register | Disclaimer

   EN    FR    IT 

 










Legend :    VFR   Marginal VFR   IFR   Intensive IFR   Very Intensive IFR
Visi :
Ceiling :
>= 8 km
>= 3000ft
5 to 8 km
1000 to 3000 ft
1500m to 5 km
500 to 1000 ft
800 to 1500m
200 to 500 ft
< 800m
< 200 ft
Symbols :   Thunderstorms  Fog  Heavy snow  Heavy precipitations  Wind > 20 kt
SIGMETs :     Misc.  Thunderstorms  Icing  Turbulence  Mountain Waves  Volcanic Ashes







- Airport Elevation : 157 ft
- IATA code : SXF


EDDB - Berlin Schönefeld

CURRENT METAR :
  • 190150Z 01007KT 9999 BKN031 11/07 Q1024 NOSIG

EXPIRED METARs :
  • 190120Z 35008KT 9999 BKN029 11/07 Q1024 NOSIG
  • 190050Z 35008KT 9999 BKN029 11/07 Q1024 NOSIG
  • 190020Z 35007KT 9999 BKN028 11/07 Q1024 NOSIG
  • 182350Z 34008KT 9999 FEW017 BKN026 12/07 Q1024 NOSIG
  • 182320Z 35009KT 9999 FEW017 BKN026 12/07 Q1024 NOSIG

TAF TAF EDDB
Valid from the 19 at 00:00 until the 20 at 00:00 UTC


182300Z 1900/1924 33005KT 9999 SCT030
PROB30
TEMPO 1902/1907 2000 BCFG
No reported NOTAMs for that airfield.



MET'MAP, your aeronautical weather chart ! - Copyright ORBIFLY December 2007 - Disclaimer

ORBIFLY MET'MAP TEAM :

Programming & Development : Alexandra Zaïnal
Concept & Development : Baudouin d'Aumeries
Co-Development & Prog : Marc-Olivier Méhu
Technical & hardware support : Manuel Goepfert

Contact : metmap@orbifly.com




SOURCES & CREDITS :

   NOAA